Time;durP1;ratioP1;P1;durP2;ratioP2;P2;SDS_P1;SDS_P2;PMS_P1;PMS_P2;Temp;Humidity;BMP_temperature;BMP_pressure;BME280_temperature;BME280_humidity;BME280_pressure;Samples;Min_cycle;Max_cycle;Signal;HPM_P1;HPM_P2
2021/06/30 00:00:33;;;;;;;2.72;1.98;;;;;;;;;;4986961;28;20029;-92
2021/06/30 00:02:59;;;;;;;3.47;1.85;;;;;;;;;;5019038;28;20079;-93
2021/06/30 00:05:31;;;;;;;3.00;1.77;;;;;;;;;;5002518;28;20025;-93
2021/06/30 00:07:56;;;;;;;2.30;1.65;;;;;;;;;;5002682;28;20128;-92
2021/06/30 00:10:25;;;;;;;2.70;2.03;;;;;;;;;;4986554;28;20079;-93
2021/06/30 00:12:51;;;;;;;3.25;1.95;;;;;;;;;;5002554;28;20033;-93
2021/06/30 00:15:23;;;;;;;2.65;1.77;;;;;;;;;;5002962;28;20033;-93
2021/06/30 00:17:51;;;;;;;2.35;1.50;;;;;;;;;;5003081;28;20029;-92
2021/06/30 00:20:17;;;;;;;2.25;1.40;;;;;;;;;;5000514;28;20128;-91
2021/06/30 00:22:42;;;;;;;2.67;1.70;;;;;;;;;;5002174;28;20063;-93
2021/06/30 00:25:10;;;;;;;2.67;1.70;;;;;;;;;;5002778;28;20033;-93
2021/06/30 00:27:39;;;;;;;1.77;1.15;;;;;;;;;;5003947;28;20033;-93
2021/06/30 00:30:08;;;;;;;3.08;1.70;;;;;;;;;;5002502;28;20033;-93
2021/06/30 00:32:34;;;;;;;3.28;1.77;;;;;;;;;;5002227;28;20037;-92
2021/06/30 00:34:59;;;;;;;2.00;1.10;;;;;;;;;;5002248;28;20072;-93
2021/06/30 00:37:27;;;;;;;2.33;1.20;;;;;;;;;;5002139;28;20060;-91
2021/06/30 00:39:55;;;;;;;3.00;1.60;;;;;;;;;;5001713;28;20021;-92
2021/06/30 00:42:28;;;;;;;2.78;1.17;;;;;;;;;;5002038;28;20041;-91
2021/06/30 00:44:55;;;;;;;2.78;1.60;;;;;;;;;;5002273;28;20032;-91
2021/06/30 00:47:21;;;;;;;2.42;1.80;;;;;;;;;;5001208;28;20036;-91
2021/06/30 00:49:53;;;;;;;2.55;1.10;;;;;;;;;;4985533;28;20033;-91
2021/06/30 00:52:18;;;;;;;1.60;1.08;;;;;;;;;;5018546;28;20044;-91
2021/06/30 00:54:46;;;;;;;4.35;1.58;;;;;;;;;;5001794;28;20025;-91
2021/06/30 00:57:12;;;;;;;2.45;1.75;;;;;;;;;;5002045;28;20025;-91
2021/06/30 00:59:41;;;;;;;2.75;1.00;;;;;;;;;;5018358;28;20033;-92
2021/06/30 01:02:07;;;;;;;2.42;1.30;;;;;;;;;;5017039;28;20038;-92
2021/06/30 01:04:34;;;;;;;2.38;0.90;;;;;;;;;;5001367;28;20506;-90
2021/06/30 01:06:59;;;;;;;3.03;1.17;;;;;;;;;;5001810;28;20116;-91
2021/06/30 01:09:29;;;;;;;2.25;1.10;;;;;;;;;;5001743;28;20108;-92
2021/06/30 01:11:55;;;;;;;2.15;1.27;;;;;;;;;;5001339;28;20057;-92
2021/06/30 01:14:31;;;;;;;2.90;1.17;;;;;;;;;;5017512;28;20025;-92
2021/06/30 01:17:00;;;;;;;1.80;1.10;;;;;;;;;;5014173;28;20045;-92
2021/06/30 01:19:27;;;;;;;3.60;1.00;;;;;;;;;;4998161;28;20506;-91
2021/06/30 01:21:53;;;;;;;2.28;1.10;;;;;;;;;;5029437;28;20506;-92
2021/06/30 01:24:20;;;;;;;1.52;0.95;;;;;;;;;;5033908;28;20116;-90
2021/06/30 01:26:49;;;;;;;1.70;1.08;;;;;;;;;;5001518;28;20044;-92
2021/06/30 01:29:15;;;;;;;1.52;0.93;;;;;;;;;;5001157;28;20029;-91
2021/06/30 01:31:41;;;;;;;1.63;0.80;;;;;;;;;;4984738;28;20033;-91
2021/06/30 01:34:12;;;;;;;2.17;1.10;;;;;;;;;;5000857;28;20060;-92
2021/06/30 01:36:47;;;;;;;1.13;0.73;;;;;;;;;;5001037;28;20033;-92
2021/06/30 01:39:16;;;;;;;2.67;1.25;;;;;;;;;;5000754;28;20069;-91
2021/06/30 01:41:44;;;;;;;1.73;0.90;;;;;;;;;;5001171;28;20121;-91
2021/06/30 01:44:11;;;;;;;1.85;0.82;;;;;;;;;;5000945;28;20515;-92
2021/06/30 01:46:41;;;;;;;2.88;1.02;;;;;;;;;;5000839;28;20080;-91
2021/06/30 01:49:08;;;;;;;1.75;0.90;;;;;;;;;;4998166;28;20380;-91
2021/06/30 01:51:34;;;;;;;1.50;0.60;;;;;;;;;;4981403;28;20069;-89
2021/06/30 01:54:04;;;;;;;1.58;0.90;;;;;;;;;;4981396;28;20480;-90
2021/06/30 01:56:32;;;;;;;1.45;0.77;;;;;;;;;;4997656;28;20030;-90
2021/06/30 01:59:08;;;;;;;1.80;0.85;;;;;;;;;;5013662;28;20036;-90
2021/06/30 02:01:35;;;;;;;2.90;1.02;;;;;;;;;;4996960;28;20120;-89
2021/06/30 02:04:02;;;;;;;1.70;1.00;;;;;;;;;;5002563;28;20034;-90
2021/06/30 02:06:38;;;;;;;1.17;0.60;;;;;;;;;;5016590;28;20510;-90
2021/06/30 02:09:05;;;;;;;1.50;0.80;;;;;;;;;;5032706;28;20032;-91
2021/06/30 02:11:34;;;;;;;2.03;0.85;;;;;;;;;;5000781;28;20052;-90
2021/06/30 02:14:06;;;;;;;2.65;0.98;;;;;;;;;;5000285;28;20022;-91
2021/06/30 02:16:34;;;;;;;;;;;;;;;;;;5000898;28;20029;-90
2021/06/30 02:19:06;;;;;;;1.80;0.98;;;;;;;;;;5033256;28;20251;-89
2021/06/30 02:21:33;;;;;;;1.73;0.70;;;;;;;;;;5001321;28;20029;-90
2021/06/30 02:24:02;;;;;;;0.90;0.40;;;;;;;;;;4999891;28;20034;-91
2021/06/30 02:26:33;;;;;;;1.83;0.68;;;;;;;;;;5000137;28;20124;-90
2021/06/30 02:29:01;;;;;;;1.17;0.60;;;;;;;;;;5000212;28;20021;-90
2021/06/30 02:31:28;;;;;;;2.03;0.90;;;;;;;;;;4983737;28;20033;-89
2021/06/30 02:33:54;;;;;;;1.13;0.50;;;;;;;;;;4999992;28;20033;-90
2021/06/30 02:36:23;;;;;;;1.80;0.90;;;;;;;;;;5016152;28;20041;-90
2021/06/30 02:38:51;;;;;;;1.98;0.60;;;;;;;;;;5000096;28;20086;-90
2021/06/30 02:41:17;;;;;;;2.80;0.68;;;;;;;;;;5000095;28;20025;-89
2021/06/30 02:43:44;;;;;;;1.02;0.60;;;;;;;;;;4996619;28;20044;-90
2021/06/30 02:46:13;;;;;;;1.17;0.60;;;;;;;;;;4996770;28;20117;-91
2021/06/30 02:48:38;;;;;;;1.33;0.57;;;;;;;;;;4997779;28;20117;-89
2021/06/30 02:51:07;;;;;;;0.68;0.50;;;;;;;;;;4983453;28;20047;-90
2021/06/30 02:53:36;;;;;;;1.05;0.80;;;;;;;;;;4999243;28;20033;-90
2021/06/30 02:56:03;;;;;;;1.15;0.50;;;;;;;;;;4999446;28;20037;-89
2021/06/30 02:58:29;;;;;;;1.58;0.30;;;;;;;;;;4999561;28;20033;-89
2021/06/30 03:00:54;;;;;;;1.25;0.50;;;;;;;;;;4983347;28;20032;-89
2021/06/30 03:03:20;;;;;;;1.33;0.52;;;;;;;;;;4983066;28;20033;-89
2021/06/30 03:05:49;;;;;;;1.27;0.40;;;;;;;;;;5016008;28;20039;-89
2021/06/30 03:08:16;;;;;;;1.85;0.45;;;;;;;;;;4999320;28;20136;-90
2021/06/30 03:10:44;;;;;;;0.50;0.20;;;;;;;;;;4999254;28;20030;-90
2021/06/30 03:13:12;;;;;;;0.63;0.30;;;;;;;;;;4999434;28;20032;-90
2021/06/30 03:15:37;;;;;;;1.80;0.30;;;;;;;;;;4999140;28;20038;-90
2021/06/30 03:18:03;;;;;;;0.60;0.30;;;;;;;;;;5007597;28;20061;-89
2021/06/30 03:20:31;;;;;;;3.38;0.30;;;;;;;;;;4980050;28;20030;-89
2021/06/30 03:22:56;;;;;;;1.13;0.45;;;;;;;;;;5012043;28;20037;-89
2021/06/30 03:25:26;;;;;;;0.90;0.30;;;;;;;;;;5028391;28;20522;-89
2021/06/30 03:27:54;;;;;;;1.30;0.40;;;;;;;;;;5015585;28;20084;-89
2021/06/30 03:30:21;;;;;;;0.68;0.30;;;;;;;;;;4999346;28;20022;-89
2021/06/30 03:32:47;;;;;;;0.30;0.10;;;;;;;;;;4998892;28;20025;-89
2021/06/30 03:35:14;;;;;;;0.93;0.30;;;;;;;;;;5015874;28;20057;-89
2021/06/30 03:37:39;;;;;;;0.30;0.20;;;;;;;;;;4983339;28;20026;-89
2021/06/30 03:40:07;;;;;;;1.25;0.52;;;;;;;;;;4982747;28;20051;-88
2021/06/30 03:42:36;;;;;;;0.85;0.20;;;;;;;;;;5015403;28;20140;-88
2021/06/30 03:45:04;;;;;;;0.30;0.30;;;;;;;;;;5031521;28;20112;-88
2021/06/30 03:47:30;;;;;;;0.40;0.10;;;;;;;;;;5014607;28;20087;-88
2021/06/30 03:49:58;;;;;;;0.63;0.20;;;;;;;;;;4998815;28;20033;-88
2021/06/30 03:52:24;;;;;;;0.68;0.20;;;;;;;;;;4982466;28;20040;-88
2021/06/30 03:54:53;;;;;;;0.38;0.28;;;;;;;;;;5015180;28;20042;-88
2021/06/30 03:57:18;;;;;;;0.30;0.10;;;;;;;;;;4995424;28;20046;-87
2021/06/30 03:59:44;;;;;;;0.90;0.30;;;;;;;;;;4995129;28;20033;-88
2021/06/30 04:02:10;;;;;;;0.80;0.20;;;;;;;;;;5003441;28;20041;-87
2021/06/30 04:04:39;;;;;;;0.20;0.10;;;;;;;;;;5011208;28;20041;-87
2021/06/30 04:07:04;;;;;;;0.65;0.30;;;;;;;;;;5011564;28;20030;-87
2021/06/30 04:09:30;;;;;;;0.15;0.10;;;;;;;;;;5011237;28;20032;-87
2021/06/30 04:11:59;;;;;;;1.02;0.20;;;;;;;;;;5014069;28;20037;-87
2021/06/30 04:14:27;;;;;;;1.10;0.30;;;;;;;;;;5014529;28;20026;-88
2021/06/30 04:16:53;;;;;;;1.55;0.20;;;;;;;;;;4999142;28;20259;-88
2021/06/30 04:19:21;;;;;;;1.15;0.10;;;;;;;;;;4998446;28;20040;-87
2021/06/30 04:21:50;;;;;;;1.70;0.10;;;;;;;;;;4998405;28;20033;-87
2021/06/30 04:24:17;;;;;;;0.55;0.30;;;;;;;;;;4981876;28;20510;-87
2021/06/30 04:26:45;;;;;;;0.45;0.20;;;;;;;;;;4998323;28;20038;-87
2021/06/30 04:29:10;;;;;;;0.30;0.10;;;;;;;;;;4998623;28;20025;-87
2021/06/30 04:31:37;;;;;;;0.30;0.20;;;;;;;;;;4997049;28;20041;-87
2021/06/30 04:34:02;;;;;;;0.30;0.10;;;;;;;;;;5014175;28;20044;-86
2021/06/30 04:36:31;;;;;;;0.90;0.35;;;;;;;;;;4982212;28;20041;-86
2021/06/30 04:38:56;;;;;;;0.65;0.20;;;;;;;;;;5001813;28;20021;-87
2021/06/30 04:41:23;;;;;;;0.40;0.10;;;;;;;;;;5001659;28;20026;-87
2021/06/30 04:43:48;;;;;;;0.40;0.10;;;;;;;;;;5001706;28;20544;-87
2021/06/30 04:46:16;;;;;;;0.55;0.10;;;;;;;;;;5017954;28;20029;-87
2021/06/30 04:48:43;;;;;;;0.20;0.10;;;;;;;;;;5001706;28;20029;-88
2021/06/30 04:51:08;;;;;;;0.10;0.00;;;;;;;;;;5001497;28;20116;-87
2021/06/30 04:53:35;;;;;;;0.50;0.20;;;;;;;;;;5001698;28;20120;-87
2021/06/30 04:56:02;;;;;;;1.95;0.57;;;;;;;;;;5001201;28;20036;-87
2021/06/30 04:58:28;;;;;;;0.57;0.20;;;;;;;;;;4985291;28;20492;-86
2021/06/30 05:00:55;;;;;;;0.73;0.10;;;;;;;;;;4981907;28;20060;-87
2021/06/30 05:03:27;;;;;;;0.52;0.20;;;;;;;;;;4998018;28;20030;-87
2021/06/30 05:05:55;;;;;;;0.77;0.20;;;;;;;;;;4982362;28;20100;-89
2021/06/30 05:08:22;;;;;;;0.95;0.22;;;;;;;;;;5014140;28;20022;-93
2021/06/30 05:10:52;;;;;;;0.88;0.10;;;;;;;;;;5014201;28;20502;-90
2021/06/30 05:13:18;;;;;;;0.98;0.20;;;;;;;;;;5015613;28;20036;-86
2021/06/30 05:15:45;;;;;;;0.90;0.10;;;;;;;;;;5017167;28;20033;-87
2021/06/30 05:18:10;;;;;;;0.30;0.10;;;;;;;;;;4999918;28;20067;-80
2021/06/30 05:20:36;;;;;;;0.45;0.10;;;;;;;;;;4999414;28;20037;-80
2021/06/30 05:23:01;;;;;;;0.40;0.20;;;;;;;;;;4996301;28;20415;-80
2021/06/30 05:25:27;;;;;;;0.60;0.20;;;;;;;;;;5010121;28;20823;-79
2021/06/30 05:27:53;;;;;;;2.35;0.40;;;;;;;;;;4985197;28;20025;-80
2021/06/30 05:30:18;;;;;;;1.23;0.20;;;;;;;;;;5014319;28;20037;-79
2021/06/30 05:32:43;;;;;;;0.50;0.10;;;;;;;;;;5015586;28;20032;-80
2021/06/30 05:35:09;;;;;;;1.02;0.10;;;;;;;;;;5016054;28;20039;-79
2021/06/30 05:37:35;;;;;;;1.95;0.28;;;;;;;;;;4983379;28;20017;-80
2021/06/30 05:40:08;;;;;;;0.20;0.10;;;;;;;;;;4999730;28;20037;-80
2021/06/30 05:42:33;;;;;;;1.30;0.30;;;;;;;;;;5016858;28;20026;-79
2021/06/30 05:44:59;;;;;;;0.30;0.15;;;;;;;;;;4974605;28;20044;-79
2021/06/30 05:47:25;;;;;;;1.25;0.15;;;;;;;;;;5028867;28;20021;-78
2021/06/30 05:49:51;;;;;;;1.30;0.35;;;;;;;;;;4979714;28;20080;-79
2021/06/30 05:52:16;;;;;;;0.60;0.30;;;;;;;;;;5011756;28;20033;-78
2021/06/30 05:54:42;;;;;;;1.90;0.30;;;;;;;;;;5015548;28;20482;-78
2021/06/30 05:57:07;;;;;;;1.58;0.73;;;;;;;;;;5031841;28;20043;-78
2021/06/30 05:59:33;;;;;;;3.35;0.40;;;;;;;;;;5015212;28;20033;-78
2021/06/30 06:01:58;;;;;;;3.88;0.90;;;;;;;;;;4998465;28;20033;-78
2021/06/30 06:04:24;;;;;;;4.60;0.40;;;;;;;;;;5014317;28;20043;-78
2021/06/30 06:06:49;;;;;;;5.55;0.47;;;;;;;;;;5014847;28;20047;-77
2021/06/30 06:09:30;;;;;;;1.83;0.43;;;;;;;;;;4999080;28;20037;-77
2021/06/30 06:11:56;;;;;;;4.03;0.70;;;;;;;;;;5012291;28;20030;-78
2021/06/30 06:14:21;;;;;;;4.35;0.60;;;;;;;;;;4998871;28;20037;-78
2021/06/30 06:16:47;;;;;;;3.28;0.50;;;;;;;;;;5012966;28;20037;-78
2021/06/30 06:19:12;;;;;;;9.32;1.02;;;;;;;;;;4982805;28;20107;-78
2021/06/30 06:21:38;;;;;;;3.47;0.57;;;;;;;;;;4979002;28;20037;-77
2021/06/30 06:24:04;;;;;;;1.95;0.40;;;;;;;;;;5031261;28;20049;-77
2021/06/30 06:26:30;;;;;;;2.25;0.43;;;;;;;;;;4982328;28;20033;-79
2021/06/30 06:28:56;;;;;;;4.78;0.40;;;;;;;;;;5015230;28;20059;-77
2021/06/30 06:31:21;;;;;;;3.78;0.50;;;;;;;;;;5014630;28;20026;-77
2021/06/30 06:33:46;;;;;;;2.25;0.43;;;;;;;;;;4992934;28;20052;-77
2021/06/30 06:36:13;;;;;;;1.83;0.43;;;;;;;;;;5012762;28;20031;-77
2021/06/30 06:38:38;;;;;;;3.13;0.40;;;;;;;;;;5012527;28;20695;-77
2021/06/30 06:41:05;;;;;;;2.83;0.43;;;;;;;;;;4981111;28;20030;-77
2021/06/30 06:43:32;;;;;;;2.05;0.50;;;;;;;;;;4982417;28;20026;-77
2021/06/30 06:45:58;;;;;;;1.73;0.50;;;;;;;;;;4998314;28;20098;-77
2021/06/30 06:48:23;;;;;;;1.45;0.43;;;;;;;;;;4997418;28;20488;-76
2021/06/30 06:50:49;;;;;;;0.98;0.60;;;;;;;;;;4999487;28;20056;-77
2021/06/30 06:53:14;;;;;;;0.80;0.40;;;;;;;;;;4995505;28;20044;-76
2021/06/30 06:55:40;;;;;;;1.20;0.60;;;;;;;;;;4997775;28;20044;-76
2021/06/30 06:58:06;;;;;;;1.58;0.40;;;;;;;;;;4998410;28;20029;-76
2021/06/30 07:00:31;;;;;;;1.63;0.60;;;;;;;;;;5011923;28;20086;-77
2021/06/30 07:02:56;;;;;;;2.42;0.60;;;;;;;;;;5035881;28;20525;-77
2021/06/30 07:05:22;;;;;;;1.90;0.50;;;;;;;;;;4977505;28;20038;-77
2021/06/30 07:07:48;;;;;;;13.30;1.98;;;;;;;;;;5010965;28;20033;-77
2021/06/30 07:10:13;;;;;;;3.97;0.90;;;;;;;;;;5011082;28;20391;-77
2021/06/30 07:12:39;;;;;;;5.68;0.98;;;;;;;;;;5011042;28;20515;-77
2021/06/30 07:15:06;;;;;;;5.20;0.90;;;;;;;;;;5010942;28;20058;-78
2021/06/30 07:17:35;;;;;;;3.33;1.38;;;;;;;;;;5011332;28;20045;-77
2021/06/30 07:20:02;;;;;;;9.75;2.10;;;;;;;;;;5010196;28;20033;-77
2021/06/30 07:22:27;;;;;;;6.80;1.83;;;;;;;;;;5027698;28;20045;-78
2021/06/30 07:24:53;;;;;;;4.00;1.67;;;;;;;;;;5027811;28;20103;-78
2021/06/30 07:27:18;;;;;;;4.03;1.70;;;;;;;;;;4997510;28;20037;-78
2021/06/30 07:29:44;;;;;;;4.03;2.30;;;;;;;;;;4997673;28;20033;-77
2021/06/30 07:32:09;;;;;;;5.47;2.10;;;;;;;;;;4997226;28;20033;-78
2021/06/30 07:34:35;;;;;;;3.90;1.60;;;;;;;;;;5004074;28;20033;-78
2021/06/30 07:37:00;;;;;;;5.00;2.28;;;;;;;;;;5046790;28;20061;-79
2021/06/30 07:39:26;;;;;;;4.10;1.80;;;;;;;;;;5013966;28;20033;-78
2021/06/30 07:41:52;;;;;;;2.38;1.20;;;;;;;;;;5014299;28;20099;-78
2021/06/30 07:44:18;;;;;;;2.63;1.50;;;;;;;;;;5005886;28;20043;-77
2021/06/30 07:46:44;;;;;;;4.00;1.30;;;;;;;;;;5013090;28;20045;-77
2021/06/30 07:49:09;;;;;;;2.47;0.88;;;;;;;;;;5013330;28;20021;-77
2021/06/30 07:51:35;;;;;;;1.95;1.00;;;;;;;;;;5013548;28;20598;-78
2021/06/30 07:54:11;;;;;;;3.58;1.25;;;;;;;;;;5013325;28;20034;-78
2021/06/30 07:56:39;;;;;;;1.65;1.05;;;;;;;;;;4999045;28;20087;-78
2021/06/30 07:59:11;;;;;;;3.80;1.58;;;;;;;;;;5013821;28;20017;-77
2021/06/30 08:01:37;;;;;;;;;;;;;;;;;;5013623;28;20034;-77
2021/06/30 08:04:03;;;;;;;1.85;0.90;;;;;;;;;;5013168;28;19913;-77
2021/06/30 08:06:29;;;;;;;2.10;0.90;;;;;;;;;;5013774;28;20033;-77
2021/06/30 08:08:54;;;;;;;0.93;0.63;;;;;;;;;;4996891;28;20036;-77
2021/06/30 08:11:23;;;;;;;2.05;0.85;;;;;;;;;;4998548;28;20037;-77
2021/06/30 08:13:52;;;;;;;4.75;0.90;;;;;;;;;;4999584;28;20129;-78
2021/06/30 08:16:18;;;;;;;3.05;1.02;;;;;;;;;;4999211;28;20040;-77
2021/06/30 08:18:44;;;;;;;2.47;0.85;;;;;;;;;;5016872;28;20057;-77
2021/06/30 08:21:09;;;;;;;2.50;0.82;;;;;;;;;;5017142;28;20026;-77
2021/06/30 08:23:35;;;;;;;2.70;1.00;;;;;;;;;;5000877;28;20045;-77
2021/06/30 08:26:00;;;;;;;2.75;1.13;;;;;;;;;;5001070;28;20040;-77
2021/06/30 08:28:27;;;;;;;3.63;0.88;;;;;;;;;;5000572;28;20033;-77
2021/06/30 08:30:53;;;;;;;3.15;0.80;;;;;;;;;;5016687;28;20049;-77
2021/06/30 08:33:18;;;;;;;2.08;0.93;;;;;;;;;;5033027;28;20037;-77
2021/06/30 08:35:43;;;;;;;2.30;0.73;;;;;;;;;;5025315;28;20091;-77
2021/06/30 08:38:09;;;;;;;2.90;0.98;;;;;;;;;;5007325;28;20476;-77
2021/06/30 08:40:37;;;;;;;2.17;0.85;;;;;;;;;;5030156;28;20033;-77
2021/06/30 08:43:03;;;;;;;1.42;0.80;;;;;;;;;;5016844;28;20112;-77
2021/06/30 08:45:28;;;;;;;2.80;1.00;;;;;;;;;;5017205;28;20109;-77
2021/06/30 08:47:56;;;;;;;4.88;1.10;;;;;;;;;;5016275;28;20494;-77
2021/06/30 08:50:22;;;;;;;3.65;1.15;;;;;;;;;;5000947;28;20029;-77
2021/06/30 08:52:48;;;;;;;3.72;1.58;;;;;;;;;;5000140;28;20045;-77
2021/06/30 08:55:15;;;;;;;9.25;5.22;;;;;;;;;;5016735;28;20048;-77
2021/06/30 08:57:41;;;;;;;7.00;3.92;;;;;;;;;;5017036;28;20117;-77
2021/06/30 09:00:07;;;;;;;7.88;4.85;;;;;;;;;;5000530;28;20108;-77
2021/06/30 09:02:33;;;;;;;11.38;5.53;;;;;;;;;;5016288;28;20436;-77
2021/06/30 09:05:11;;;;;;;12.13;7.93;;;;;;;;;;5016077;28;20109;-77
2021/06/30 09:07:36;;;;;;;9.60;6.25;;;;;;;;;;5017680;28;20035;-77
2021/06/30 09:10:02;;;;;;;15.45;7.88;;;;;;;;;;4999965;28;20045;-77
2021/06/30 09:12:40;;;;;;;11.00;6.75;;;;;;;;;;5011053;28;20045;-77
2021/06/30 09:15:18;;;;;;;9.52;6.80;;;;;;;;;;5029260;28;20457;-76
2021/06/30 09:17:46;;;;;;;12.75;7.18;;;;;;;;;;4999370;28;20464;-77
2021/06/30 09:20:11;;;;;;;6.35;5.28;;;;;;;;;;5006874;28;20111;-77
2021/06/30 09:22:47;;;;;;;8.52;5.90;;;;;;;;;;5031456;28;20112;-77
2021/06/30 09:25:28;;;;;;;8.68;5.53;;;;;;;;;;5032650;28;20045;-77
2021/06/30 09:27:53;;;;;;;6.55;4.28;;;;;;;;;;5028713;28;20387;-77
2021/06/30 09:30:19;;;;;;;8.18;4.60;;;;;;;;;;5012611;28;20040;-77
2021/06/30 09:33:04;;;;;;;7.88;4.82;;;;;;;;;;5014110;28;20041;-77
2021/06/30 09:35:34;;;;;;;8.15;4.38;;;;;;;;;;5015467;28;20038;-77
2021/06/30 09:38:30;;;;;;;5.97;4.30;;;;;;;;;;5016457;28;20107;-77
2021/06/30 09:40:56;;;;;;;4.68;3.40;;;;;;;;;;5015562;28;20033;-77
2021/06/30 09:43:32;;;;;;;6.15;3.47;;;;;;;;;;5031735;28;20487;-77
2021/06/30 09:46:02;;;;;;;3.60;2.35;;;;;;;;;;5015659;28;20033;-77
2021/06/30 09:48:34;;;;;;;5.03;2.60;;;;;;;;;;5015312;28;20037;-77
2021/06/30 09:51:00;;;;;;;;;;;;;;;;;;4996133;28;20033;-77
2021/06/30 09:53:40;;;;;;;3.30;2.13;;;;;;;;;;5028120;28;19913;-77
2021/06/30 09:56:32;;;;;;;6.72;2.17;;;;;;;;;;4997181;28;20050;-77
2021/06/30 09:59:18;;;;;;;;;;;;;;;;;;5019411;28;20029;-76
2021/06/30 10:01:51;;;;;;;4.50;1.70;;;;;;;;;;5031035;28;19913;-76
2021/06/30 10:04:34;;;;;;;4.00;1.30;;;;;;;;;;5030926;28;20060;-77
2021/06/30 10:07:01;;;;;;;4.57;1.67;;;;;;;;;;5030547;28;20503;-76
2021/06/30 10:09:26;;;;;;;3.63;1.67;;;;;;;;;;5031595;28;20033;-76
2021/06/30 10:12:00;;;;;;;3.85;1.88;;;;;;;;;;4999079;28;20033;-76
2021/06/30 10:14:26;;;;;;;3.03;1.70;;;;;;;;;;4983845;28;20038;-76
2021/06/30 10:16:51;;;;;;;2.50;1.73;;;;;;;;;;5000836;28;20558;-76
2021/06/30 10:19:19;;;;;;;4.50;1.52;;;;;;;;;;5031614;28;20049;-76
2021/06/30 10:21:46;;;;;;;2.58;1.92;;;;;;;;;;5043208;28;20049;-76
2021/06/30 10:24:13;;;;;;;2.45;1.63;;;;;;;;;;5020246;28;20021;-77
2021/06/30 10:26:39;;;;;;;2.75;1.55;;;;;;;;;;4999156;28;20042;-77
2021/06/30 10:29:05;;;;;;;3.20;1.73;;;;;;;;;;4999029;28;20040;-77
2021/06/30 10:31:35;;;;;;;3.65;1.65;;;;;;;;;;4998317;28;20124;-76
2021/06/30 10:34:01;;;;;;;4.47;1.80;;;;;;;;;;5005412;28;20033;-76
2021/06/30 10:36:54;;;;;;;3.38;1.60;;;;;;;;;;5031180;28;20033;-76
2021/06/30 10:39:47;;;;;;;6.68;2.28;;;;;;;;;;5011266;28;20036;-76
2021/06/30 10:42:32;;;;;;;5.30;2.40;;;;;;;;;;5024694;28;20574;-76
2021/06/30 10:45:00;;;;;;;6.50;3.10;;;;;;;;;;5014956;28;20084;-76
2021/06/30 10:47:28;;;;;;;8.10;5.18;;;;;;;;;;5013416;28;20057;-76
2021/06/30 10:50:22;;;;;;;8.88;6.18;;;;;;;;;;5027403;28;20513;-76
2021/06/30 10:53:08;;;;;;;11.05;6.97;;;;;;;;;;5047138;28;20044;-76
2021/06/30 10:55:35;;;;;;;11.48;7.03;;;;;;;;;;5025893;28;20044;-76
2021/06/30 10:58:18;;;;;;;9.20;6.50;;;;;;;;;;5027129;28;20037;-77
2021/06/30 11:01:06;;;;;;;9.23;5.85;;;;;;;;;;5027638;28;20103;-76
2021/06/30 11:03:45;;;;;;;10.23;6.10;;;;;;;;;;5009562;28;20039;-77
2021/06/30 11:06:12;;;;;;;8.32;4.90;;;;;;;;;;5010287;28;20033;-76
2021/06/30 11:08:43;;;;;;;6.68;4.30;;;;;;;;;;5027879;28;20095;-76
2021/06/30 11:11:12;;;;;;;7.07;4.30;;;;;;;;;;5033538;28;20026;-76
2021/06/30 11:13:57;;;;;;;6.38;3.83;;;;;;;;;;5002997;28;20056;-76
2021/06/30 11:16:56;;;;;;;6.60;4.43;;;;;;;;;;5002811;28;20037;-76
2021/06/30 11:19:21;;;;;;;7.63;4.28;;;;;;;;;;5027425;28;20044;-76
2021/06/30 11:21:56;;;;;;;10.15;4.18;;;;;;;;;;5027374;28;20033;-76
2021/06/30 11:24:44;;;;;;;7.50;3.05;;;;;;;;;;5019024;28;20037;-76
2021/06/30 11:27:13;;;;;;;7.93;3.72;;;;;;;;;;5024901;28;20061;-76
2021/06/30 11:29:42;;;;;;;6.60;3.40;;;;;;;;;;5030591;28;20029;-76
2021/06/30 11:32:08;;;;;;;9.05;4.13;;;;;;;;;;5028948;28;20828;-77
2021/06/30 11:34:38;;;;;;;8.35;3.95;;;;;;;;;;5012967;28;20091;-76
2021/06/30 11:37:04;;;;;;;9.60;7.38;;;;;;;;;;5030360;28;20037;-76
2021/06/30 11:39:30;;;;;;;22.00;13.18;;;;;;;;;;4997852;28;20099;-77
2021/06/30 11:41:55;;;;;;;16.83;11.40;;;;;;;;;;4997024;28;20535;-76
2021/06/30 11:44:32;;;;;;;12.75;9.15;;;;;;;;;;4997318;28;20120;-76
2021/06/30 11:47:01;;;;;;;8.43;6.68;;;;;;;;;;4997302;28;20037;-76
2021/06/30 11:49:26;;;;;;;8.25;6.20;;;;;;;;;;5022253;28;20029;-77
2021/06/30 11:51:56;;;;;;;10.35;5.75;;;;;;;;;;5001171;28;20116;-77
2021/06/30 11:54:25;;;;;;;7.72;5.85;;;;;;;;;;5033614;28;20037;-78
2021/06/30 11:56:51;;;;;;;7.97;5.25;;;;;;;;;;5018189;28;20029;-77
2021/06/30 11:59:20;;;;;;;5.63;5.03;;;;;;;;;;5017909;28;20541;-77
2021/06/30 12:01:46;;;;;;;15.10;5.20;;;;;;;;;;5002146;28;20033;-77
2021/06/30 12:04:13;;;;;;;8.40;4.45;;;;;;;;;;5017217;28;20475;-77
2021/06/30 12:06:40;;;;;;;7.80;4.43;;;;;;;;;;4984676;28;20080;-77
2021/06/30 12:09:13;;;;;;;6.93;4.22;;;;;;;;;;5019214;28;20057;-77
2021/06/30 12:11:44;;;;;;;5.90;4.22;;;;;;;;;;5014748;28;20033;-76
2021/06/30 12:14:15;;;;;;;5.18;4.05;;;;;;;;;;5015401;28;20041;-76
2021/06/30 12:16:52;;;;;;;6.32;3.53;;;;;;;;;;5000574;28;20029;-76
2021/06/30 12:19:19;;;;;;;6.22;3.92;;;;;;;;;;4984946;28;20034;-77
2021/06/30 12:21:45;;;;;;;6.78;3.60;;;;;;;;;;5017593;28;20033;-77
2021/06/30 12:24:12;;;;;;;5.90;3.58;;;;;;;;;;5016565;28;20045;-77
2021/06/30 12:26:57;;;;;;;5.25;3.40;;;;;;;;;;5013726;28;20072;-77
2021/06/30 12:29:22;;;;;;;4.43;3.42;;;;;;;;;;5013890;28;20032;-78
2021/06/30 12:31:48;;;;;;;5.00;3.63;;;;;;;;;;5000562;28;20060;-77
2021/06/30 12:34:14;;;;;;;5.97;3.58;;;;;;;;;;4983817;28;20029;-76
2021/06/30 12:36:41;;;;;;;7.72;3.83;;;;;;;;;;5016960;28;20033;-76
2021/06/30 12:39:23;;;;;;;6.68;3.40;;;;;;;;;;5004483;28;20034;-77
2021/06/30 12:42:02;;;;;;;4.60;3.95;;;;;;;;;;5035437;28;20088;-77
2021/06/30 12:44:29;;;;;;;4.63;3.00;;;;;;;;;;5013278;28;20097;-79
2021/06/30 12:47:11;;;;;;;5.38;4.20;;;;;;;;;;5017068;28;20037;-79
2021/06/30 12:49:37;;;;;;;;;;;;;;;;;;4997306;28;20044;-78
2021/06/30 12:52:03;;;;;;;5.97;4.00;;;;;;;;;;5030566;28;20370;-78
2021/06/30 12:54:28;;;;;;;5.47;3.38;;;;;;;;;;5013006;28;20052;-79
2021/06/30 12:57:02;;;;;;;5.55;3.55;;;;;;;;;;4996056;28;20120;-78
2021/06/30 12:59:27;;;;;;;8.00;3.40;;;;;;;;;;5003484;28;20072;-78
2021/06/30 13:01:53;;;;;;;4.15;3.10;;;;;;;;;;5022356;28;20049;-78
2021/06/30 13:04:33;;;;;;;6.13;3.92;;;;;;;;;;5013766;28;20052;-79
2021/06/30 13:07:00;;;;;;;4.20;3.22;;;;;;;;;;5001352;28;20467;-79
2021/06/30 13:09:27;;;;;;;3.17;2.72;;;;;;;;;;5032385;28;20042;-78
2021/06/30 13:12:04;;;;;;;5.15;3.03;;;;;;;;;;5015775;28;20043;-80
2021/06/30 13:14:33;;;;;;;3.97;2.63;;;;;;;;;;5007881;28;20048;-78
2021/06/30 13:17:08;;;;;;;3.92;2.90;;;;;;;;;;5022127;28;20118;-77
2021/06/30 13:19:38;;;;;;;4.80;2.85;;;;;;;;;;5015247;28;20033;-79
2021/06/30 13:22:13;;;;;;;7.68;3.75;;;;;;;;;;5015762;28;20069;-79
2021/06/30 13:24:50;;;;;;;4.93;2.78;;;;;;;;;;5000447;28;20041;-78
2021/06/30 13:35:40;;;;;;;5.15;2.45;;;;;;;;;;5033325;28;20483;-80
2021/06/30 13:38:24;;;;;;;3.72;2.33;;;;;;;;;;5015545;28;20475;-79
2021/06/30 13:40:52;;;;;;;3.55;2.50;;;;;;;;;;5006246;28;20551;-80
2021/06/30 13:43:18;;;;;;;4.47;2.78;;;;;;;;;;4980630;28;20092;-78
2021/06/30 13:45:49;;;;;;;4.55;2.60;;;;;;;;;;5031995;28;20029;-78
2021/06/30 13:48:15;;;;;;;3.15;2.38;;;;;;;;;;4995298;28;20057;-78
2021/06/30 13:50:43;;;;;;;4.90;3.15;;;;;;;;;;4998762;28;20064;-79
2021/06/30 13:53:08;;;;;;;3.90;2.20;;;;;;;;;;4998877;28;20140;-79
2021/06/30 13:55:34;;;;;;;3.13;2.22;;;;;;;;;;5002511;28;20111;-79
2021/06/30 13:58:00;;;;;;;5.18;2.45;;;;;;;;;;5012993;28;20113;-78
2021/06/30 14:00:26;;;;;;;3.95;2.33;;;;;;;;;;5046393;28;20072;-77
2021/06/30 14:02:52;;;;;;;4.63;2.38;;;;;;;;;;5014994;28;20029;-77
2021/06/30 14:05:17;;;;;;;3.55;2.22;;;;;;;;;;4998398;28;20462;-77
2021/06/30 14:07:42;;;;;;;3.25;2.05;;;;;;;;;;4998919;28;20030;-77
2021/06/30 14:10:08;;;;;;;3.15;2.10;;;;;;;;;;5005401;28;20097;-76
2021/06/30 14:12:34;;;;;;;4.75;2.10;;;;;;;;;;5012080;28;20476;-77
2021/06/30 14:14:59;;;;;;;2.70;1.90;;;;;;;;;;5011822;28;20395;-77
2021/06/30 14:17:25;;;;;;;2.90;2.17;;;;;;;;;;5011925;28;20388;-77
2021/06/30 14:19:50;;;;;;;3.88;2.15;;;;;;;;;;5011222;28;20044;-77
2021/06/30 14:22:27;;;;;;;2.97;1.67;;;;;;;;;;5012600;28;20175;-77
2021/06/30 14:24:52;;;;;;;2.58;1.70;;;;;;;;;;5024173;28;20637;-77
2021/06/30 14:27:21;;;;;;;2.45;1.30;;;;;;;;;;5014777;28;20143;-77
2021/06/30 14:29:48;;;;;;;2.65;1.85;;;;;;;;;;5015465;28;20498;-77
2021/06/30 14:32:13;;;;;;;2.03;1.45;;;;;;;;;;5002118;28;20038;-77
2021/06/30 14:34:39;;;;;;;2.30;1.70;;;;;;;;;;5010832;28;20076;-79
2021/06/30 14:37:04;;;;;;;1.67;1.25;;;;;;;;;;5030351;28;20044;-78
2021/06/30 14:39:30;;;;;;;2.78;1.50;;;;;;;;;;5014805;28;20029;-78
2021/06/30 14:41:55;;;;;;;1.98;1.45;;;;;;;;;;4998696;28;20029;-78
2021/06/30 14:44:21;;;;;;;2.20;1.45;;;;;;;;;;4982381;28;20117;-77
2021/06/30 14:46:46;;;;;;;1.77;1.08;;;;;;;;;;4998111;28;20043;-77
2021/06/30 14:49:12;;;;;;;3.35;1.40;;;;;;;;;;5014626;28;20371;-77
2021/06/30 14:51:53;;;;;;;2.22;1.33;;;;;;;;;;5031392;28;20387;-77
2021/06/30 14:54:22;;;;;;;8.88;2.17;;;;;;;;;;5014689;28;20557;-76
2021/06/30 14:56:47;;;;;;;1.85;1.20;;;;;;;;;;4998376;28;20061;-76
2021/06/30 14:59:14;;;;;;;2.70;1.27;;;;;;;;;;5014782;28;20076;-76